sensor_id;sensor_type;location;lat;lon;timestamp;pressure;altitude;pressure_sealevel;temperature;humidity
28648;BME280;17137;51.494;-0.262;2022-12-20T00:00:44;50384.97;;;-145.72;100.00
28648;BME280;17137;51.494;-0.262;2022-12-20T00:01:16;50388.06;;;-145.72;100.00
28648;BME280;17137;51.494;-0.262;2022-12-20T00:01:47;50374.74;;;-145.72;100.00
28648;BME280;17137;51.494;-0.262;2022-12-20T00:02:17;50380.54;;;-145.72;100.00
28648;BME280;17137;51.494;-0.262;2022-12-20T00:02:48;50383.37;;;-145.72;100.00
28648;BME280;17137;51.494;-0.262;2022-12-20T00:03:18;50378.81;;;-145.72;100.00
28648;BME280;17137;51.494;-0.262;2022-12-20T00:03:49;50376.59;;;-145.72;100.00
28648;BME280;17137;51.494;-0.262;2022-12-20T00:04:20;50384.97;;;-145.72;100.00
28648;BME280;17137;51.494;-0.262;2022-12-20T00:04:51;50378.81;;;-145.72;100.00
28648;BME280;17137;51.494;-0.262;2022-12-20T00:05:21;50378.44;;;-145.72;100.00
28648;BME280;17137;51.494;-0.262;2022-12-20T00:05:51;50379.92;;;-145.72;100.00
28648;BME280;17137;51.494;-0.262;2022-12-20T00:06:23;50376.59;;;-145.72;100.00
28648;BME280;17137;51.494;-0.262;2022-12-20T00:06:53;50379.06;;;-145.72;100.00
28648;BME280;17137;51.494;-0.262;2022-12-20T00:07:24;50377.58;;;-145.72;100.00
28648;BME280;17137;51.494;-0.262;2022-12-20T00:07:54;50385.22;;;-145.72;100.00
28648;BME280;17137;51.494;-0.262;2022-12-20T00:08:24;50378.69;;;-145.72;100.00
28648;BME280;17137;51.494;-0.262;2022-12-20T00:08:56;50380.66;;;-145.72;100.00
28648;BME280;17137;51.494;-0.262;2022-12-20T00:09:27;50391.63;;;-145.72;100.00
28648;BME280;17137;51.494;-0.262;2022-12-20T00:09:57;50376.34;;;-145.72;100.00
28648;BME280;17137;51.494;-0.262;2022-12-20T00:10:27;50375.73;;;-145.72;100.00
28648;BME280;17137;51.494;-0.262;2022-12-20T00:11:00;50385.71;;;-145.72;100.00
28648;BME280;17137;51.494;-0.262;2022-12-20T00:11:31;50393.11;;;-145.72;100.00
28648;BME280;17137;51.494;-0.262;2022-12-20T00:12:01;50381.77;;;-145.72;100.00
28648;BME280;17137;51.494;-0.262;2022-12-20T00:12:31;50387.69;;;-145.72;100.00
28648;BME280;17137;51.494;-0.262;2022-12-20T00:13:02;50384.60;;;-145.72;100.00
28648;BME280;17137;51.494;-0.262;2022-12-20T00:13:33;50382.02;;;-145.72;100.00
28648;BME280;17137;51.494;-0.262;2022-12-20T00:14:04;50379.43;;;-145.72;100.00
28648;BME280;17137;51.494;-0.262;2022-12-20T00:14:34;50386.82;;;-145.72;100.00
28648;BME280;17137;51.494;-0.262;2022-12-20T00:15:05;50390.77;;;-145.72;100.00
28648;BME280;17137;51.494;-0.262;2022-12-20T00:15:36;50383.49;;;-145.72;100.00
28648;BME280;17137;51.494;-0.262;2022-12-20T00:16:09;50381.28;;;-145.72;100.00
28648;BME280;17137;51.494;-0.262;2022-12-20T00:16:39;50393.23;;;-145.72;100.00
28648;BME280;17137;51.494;-0.262;2022-12-20T00:17:09;50389.66;;;-145.72;100.00
28648;BME280;17137;51.494;-0.262;2022-12-20T00:17:40;50392.12;;;-145.72;100.00
28648;BME280;17137;51.494;-0.262;2022-12-20T00:18:10;50383.62;;;-145.72;100.00
28648;BME280;17137;51.494;-0.262;2022-12-20T00:18:41;50389.04;;;-145.72;100.00
28648;BME280;17137;51.494;-0.262;2022-12-20T00:19:12;50394.71;;;-145.72;100.00
28648;BME280;17137;51.494;-0.262;2022-12-20T00:19:45;50388.92;;;-145.72;100.00
28648;BME280;17137;51.494;-0.262;2022-12-20T00:20:15;50386.45;;;-145.72;100.00
28648;BME280;17137;51.494;-0.262;2022-12-20T00:20:45;50391.26;;;-145.72;100.00
28648;BME280;17137;51.494;-0.262;2022-12-20T00:21:15;50378.32;;;-145.72;100.00
28648;BME280;17137;51.494;-0.262;2022-12-20T00:21:46;50390.40;;;-145.72;100.00
28648;BME280;17137;51.494;-0.262;2022-12-20T00:22:16;50381.03;;;-145.72;100.00
28648;BME280;17137;51.494;-0.262;2022-12-20T00:22:46;50385.96;;;-145.72;100.00
28648;BME280;17137;51.494;-0.262;2022-12-20T00:23:17;50384.85;;;-145.72;100.00
28648;BME280;17137;51.494;-0.262;2022-12-20T00:23:47;50375.11;;;-145.72;100.00
28648;BME280;17137;51.494;-0.262;2022-12-20T00:24:18;50384.36;;;-145.72;100.00
28648;BME280;17137;51.494;-0.262;2022-12-20T00:24:48;50376.59;;;-145.72;100.00
28648;BME280;17137;51.494;-0.262;2022-12-20T00:25:19;50390.15;;;-145.72;100.00
28648;BME280;17137;51.494;-0.262;2022-12-20T00:25:50;50391.26;;;-145.72;100.00
28648;BME280;17137;51.494;-0.262;2022-12-20T00:26:22;50388.92;;;-145.72;100.00
28648;BME280;17137;51.494;-0.262;2022-12-20T00:26:53;50402.72;;;-145.72;100.00
28648;BME280;17137;51.494;-0.262;2022-12-20T00:27:23;50390.03;;;-145.72;100.00
28648;BME280;17137;51.494;-0.262;2022-12-20T00:27:53;50378.81;;;-145.72;100.00
28648;BME280;17137;51.494;-0.262;2022-12-20T00:28:24;50388.55;;;-145.72;100.00
28648;BME280;17137;51.494;-0.262;2022-12-20T00:28:54;50386.70;;;-145.72;100.00
28648;BME280;17137;51.494;-0.262;2022-12-20T00:29:25;50377.33;;;-145.72;100.00
28648;BME280;17137;51.494;-0.262;2022-12-20T00:29:55;50378.69;;;-145.72;100.00
28648;BME280;17137;51.494;-0.262;2022-12-20T00:30:25;50372.15;;;-145.72;100.00
28648;BME280;17137;51.494;-0.262;2022-12-20T00:30:56;50381.15;;;-145.72;100.00
28648;BME280;17137;51.494;-0.262;2022-12-20T00:31:28;50390.64;;;-145.72;100.00
28648;BME280;17137;51.494;-0.262;2022-12-20T00:31:59;50379.55;;;-145.72;100.00
28648;BME280;17137;51.494;-0.262;2022-12-20T00:32:29;50380.66;;;-145.72;100.00
28648;BME280;17137;51.494;-0.262;2022-12-20T00:32:59;50372.52;;;-145.72;100.00
28648;BME280;17137;51.494;-0.262;2022-12-20T00:33:30;50373.76;;;-145.72;100.00
28648;BME280;17137;51.494;-0.262;2022-12-20T00:34:01;50381.65;;;-145.72;100.00
28648;BME280;17137;51.494;-0.262;2022-12-20T00:34:31;50372.03;;;-145.72;100.00
28648;BME280;17137;51.494;-0.262;2022-12-20T00:35:01;50369.07;;;-145.72;100.00
28648;BME280;17137;51.494;-0.262;2022-12-20T00:35:32;50380.17;;;-145.72;100.00
28648;BME280;17137;51.494;-0.262;2022-12-20T00:36:03;50383.74;;;-145.72;100.00
28648;BME280;17137;51.494;-0.262;2022-12-20T00:36:34;50382.51;;;-145.72;100.00
28648;BME280;17137;51.494;-0.262;2022-12-20T00:37:04;50383.00;;;-145.72;100.00
28648;BME280;17137;51.494;-0.262;2022-12-20T00:37:35;50377.08;;;-145.72;100.00
28648;BME280;17137;51.494;-0.262;2022-12-20T00:38:05;50376.10;;;-145.72;100.00
28648;BME280;17137;51.494;-0.262;2022-12-20T00:38:40;50382.88;;;-145.72;100.00
28648;BME280;17137;51.494;-0.262;2022-12-20T00:39:13;50379.67;;;-145.72;100.00
28648;BME280;17137;51.494;-0.262;2022-12-20T00:39:43;50362.29;;;-145.72;100.00
28648;BME280;17137;51.494;-0.262;2022-12-20T00:40:14;50376.10;;;-145.72;100.00
28648;BME280;17137;51.494;-0.262;2022-12-20T00:40:44;50378.07;;;-145.72;100.00
28648;BME280;17137;51.494;-0.262;2022-12-20T00:41:16;50387.32;;;-145.72;100.00
28648;BME280;17137;51.494;-0.262;2022-12-20T00:41:47;50368.09;;;-145.72;100.00
28648;BME280;17137;51.494;-0.262;2022-12-20T00:42:18;50375.73;;;-145.72;100.00
28648;BME280;17137;51.494;-0.262;2022-12-20T00:42:48;50391.88;;;-145.72;100.00
28648;BME280;17137;51.494;-0.262;2022-12-20T00:43:18;50391.38;;;-145.72;100.00
28648;BME280;17137;51.494;-0.262;2022-12-20T00:43:48;50386.45;;;-145.72;100.00
28648;BME280;17137;51.494;-0.262;2022-12-20T00:44:19;50380.54;;;-145.72;100.00
28648;BME280;17137;51.494;-0.262;2022-12-20T00:44:49;50382.88;;;-145.72;100.00
28648;BME280;17137;51.494;-0.262;2022-12-20T00:45:19;50375.11;;;-145.72;100.00
28648;BME280;17137;51.494;-0.262;2022-12-20T00:45:50;50379.30;;;-145.72;100.00
28648;BME280;17137;51.494;-0.262;2022-12-20T00:46:21;50371.91;;;-145.72;100.00
28648;BME280;17137;51.494;-0.262;2022-12-20T00:46:51;50391.63;;;-145.72;100.00
28648;BME280;17137;51.494;-0.262;2022-12-20T00:47:22;50386.45;;;-145.72;100.00
28648;BME280;17137;51.494;-0.262;2022-12-20T00:47:52;50391.75;;;-145.72;100.00
28648;BME280;17137;51.494;-0.262;2022-12-20T00:48:23;50386.08;;;-145.72;100.00
28648;BME280;17137;51.494;-0.262;2022-12-20T00:48:54;50394.10;;;-145.72;100.00
28648;BME280;17137;51.494;-0.262;2022-12-20T00:49:25;50382.02;;;-145.72;100.00
28648;BME280;17137;51.494;-0.262;2022-12-20T00:49:55;50384.73;;;-145.72;100.00
28648;BME280;17137;51.494;-0.262;2022-12-20T00:50:26;50382.88;;;-145.72;100.00
28648;BME280;17137;51.494;-0.262;2022-12-20T00:50:58;50396.31;;;-145.72;100.00
28648;BME280;17137;51.494;-0.262;2022-12-20T00:51:29;50382.51;;;-145.72;100.00
28648;BME280;17137;51.494;-0.262;2022-12-20T00:51:59;50390.03;;;-145.72;100.00
28648;BME280;17137;51.494;-0.262;2022-12-20T00:52:30;50382.02;;;-145.72;100.00
28648;BME280;17137;51.494;-0.262;2022-12-20T00:53:00;50391.01;;;-145.72;100.00
28648;BME280;17137;51.494;-0.262;2022-12-20T00:53:31;50398.53;;;-145.72;100.00
28648;BME280;17137;51.494;-0.262;2022-12-20T00:54:01;50396.68;;;-145.72;100.00
28648;BME280;17137;51.494;-0.262;2022-12-20T00:54:32;50395.45;;;-145.72;100.00
28648;BME280;17137;51.494;-0.262;2022-12-20T00:55:03;50390.64;;;-145.72;100.00
28648;BME280;17137;51.494;-0.262;2022-12-20T00:55:33;50396.44;;;-145.72;100.00
28648;BME280;17137;51.494;-0.262;2022-12-20T00:56:05;50388.43;;;-145.72;100.00
28648;BME280;17137;51.494;-0.262;2022-12-20T00:56:36;50391.14;;;-145.72;100.00
28648;BME280;17137;51.494;-0.262;2022-12-20T00:57:07;50388.92;;;-145.72;100.00
28648;BME280;17137;51.494;-0.262;2022-12-20T00:57:37;50391.26;;;-145.72;100.00
28648;BME280;17137;51.494;-0.262;2022-12-20T00:58:09;50384.48;;;-145.72;100.00
28648;BME280;17137;51.494;-0.262;2022-12-20T00:58:40;50390.27;;;-145.72;100.00
28648;BME280;17137;51.494;-0.262;2022-12-20T00:59:11;50391.26;;;-145.72;100.00
28648;BME280;17137;51.494;-0.262;2022-12-20T00:59:41;50399.40;;;-145.72;100.00
28648;BME280;17137;51.494;-0.262;2022-12-20T01:00:12;50386.45;;;-145.72;100.00
28648;BME280;17137;51.494;-0.262;2022-12-20T01:00:43;50391.14;;;-145.72;100.00
28648;BME280;17137;51.494;-0.262;2022-12-20T01:01:17;50385.84;;;-145.72;100.00
28648;BME280;17137;51.494;-0.262;2022-12-20T01:01:48;50387.07;;;-145.72;100.00
28648;BME280;17137;51.494;-0.262;2022-12-20T01:02:18;50395.33;;;-145.72;100.00
28648;BME280;17137;51.494;-0.262;2022-12-20T01:02:48;50387.69;;;-145.72;100.00
28648;BME280;17137;51.494;-0.262;2022-12-20T01:03:19;50390.03;;;-145.72;100.00
28648;BME280;17137;51.494;-0.262;2022-12-20T01:03:50;50393.11;;;-145.72;100.00
28648;BME280;17137;51.494;-0.262;2022-12-20T01:04:21;50409.38;;;-145.72;100.00
28648;BME280;17137;51.494;-0.262;2022-12-20T01:04:51;50396.31;;;-145.72;100.00
28648;BME280;17137;51.494;-0.262;2022-12-20T01:05:22;50391.51;;;-145.72;100.00
28648;BME280;17137;51.494;-0.262;2022-12-20T01:05:54;50385.84;;;-145.72;100.00
28648;BME280;17137;51.494;-0.262;2022-12-20T01:06:25;50398.04;;;-145.72;100.00
28648;BME280;17137;51.494;-0.262;2022-12-20T01:06:55;50404.08;;;-145.72;100.00
28648;BME280;17137;51.494;-0.262;2022-12-20T01:17:43;50384.73;;;-145.72;100.00
28648;BME280;17137;51.494;-0.262;2022-12-20T01:18:13;50396.81;;;-145.72;100.00
28648;BME280;17137;51.494;-0.262;2022-12-20T01:18:43;50398.53;;;-145.72;100.00
28648;BME280;17137;51.494;-0.262;2022-12-20T01:19:16;50388.18;;;-145.72;100.00
28648;BME280;17137;51.494;-0.262;2022-12-20T01:19:47;50395.45;;;-145.72;100.00
28648;BME280;17137;51.494;-0.262;2022-12-20T01:20:17;50385.34;;;-145.72;100.00
28648;BME280;17137;51.494;-0.262;2022-12-20T01:20:48;50396.31;;;-145.72;100.00
28648;BME280;17137;51.494;-0.262;2022-12-20T01:21:20;50382.02;;;-145.72;100.00
28648;BME280;17137;51.494;-0.262;2022-12-20T01:21:51;50383.49;;;-145.72;100.00
28648;BME280;17137;51.494;-0.262;2022-12-20T01:22:21;50381.65;;;-145.72;100.00
28648;BME280;17137;51.494;-0.262;2022-12-20T01:22:51;50396.31;;;-145.72;100.00
28648;BME280;17137;51.494;-0.262;2022-12-20T01:23:21;50397.55;;;-145.72;100.00
28648;BME280;17137;51.494;-0.262;2022-12-20T01:23:52;50390.15;;;-145.72;100.00
28648;BME280;17137;51.494;-0.262;2022-12-20T01:24:22;50391.63;;;-145.72;100.00
28648;BME280;17137;51.494;-0.262;2022-12-20T01:24:52;50397.30;;;-145.72;100.00
28648;BME280;17137;51.494;-0.262;2022-12-20T01:25:23;50396.68;;;-145.72;100.00
28648;BME280;17137;51.494;-0.262;2022-12-20T01:25:53;50388.67;;;-145.72;100.00
28648;BME280;17137;51.494;-0.262;2022-12-20T01:26:25;50387.19;;;-145.72;100.00
28648;BME280;17137;51.494;-0.262;2022-12-20T01:27:01;50387.69;;;-145.72;100.00
28648;BME280;17137;51.494;-0.262;2022-12-20T01:27:31;50391.51;;;-145.72;100.00
28648;BME280;17137;51.494;-0.262;2022-12-20T01:28:02;50387.81;;;-145.72;100.00
28648;BME280;17137;51.494;-0.262;2022-12-20T01:28:32;50392.37;;;-145.72;100.00
28648;BME280;17137;51.494;-0.262;2022-12-20T01:29:02;50381.28;;;-145.72;100.00
28648;BME280;17137;51.494;-0.262;2022-12-20T01:29:32;50390.27;;;-145.72;100.00
28648;BME280;17137;51.494;-0.262;2022-12-20T01:30:03;50387.19;;;-145.72;100.00
28648;BME280;17137;51.494;-0.262;2022-12-20T01:30:33;50387.32;;;-145.72;100.00
28648;BME280;17137;51.494;-0.262;2022-12-20T01:31:06;50383.00;;;-145.72;100.00
28648;BME280;17137;51.494;-0.262;2022-12-20T01:31:37;50384.11;;;-145.72;100.00
28648;BME280;17137;51.494;-0.262;2022-12-20T01:32:07;50386.33;;;-145.72;100.00
28648;BME280;17137;51.494;-0.262;2022-12-20T01:32:38;50386.33;;;-145.72;100.00
28648;BME280;17137;51.494;-0.262;2022-12-20T01:33:08;50387.81;;;-145.72;100.00
28648;BME280;17137;51.494;-0.262;2022-12-20T01:33:38;50377.21;;;-145.72;100.00
28648;BME280;17137;51.494;-0.262;2022-12-20T01:34:09;50388.92;;;-145.72;100.00
28648;BME280;17137;51.494;-0.262;2022-12-20T01:34:40;50383.12;;;-145.72;100.00
28648;BME280;17137;51.494;-0.262;2022-12-20T01:35:10;50383.74;;;-145.72;100.00
28648;BME280;17137;51.494;-0.262;2022-12-20T01:35:40;50383.00;;;-145.72;100.00
28648;BME280;17137;51.494;-0.262;2022-12-20T01:36:13;50389.78;;;-145.72;100.00
28648;BME280;17137;51.494;-0.262;2022-12-20T01:36:43;50375.73;;;-145.72;100.00
28648;BME280;17137;51.494;-0.262;2022-12-20T01:37:13;50392.99;;;-145.72;100.00
28648;BME280;17137;51.494;-0.262;2022-12-20T01:37:44;50380.54;;;-145.72;100.00
28648;BME280;17137;51.494;-0.262;2022-12-20T01:38:14;50388.18;;;-145.72;100.00
28648;BME280;17137;51.494;-0.262;2022-12-20T01:38:44;50393.11;;;-145.72;100.00
28648;BME280;17137;51.494;-0.262;2022-12-20T01:39:15;50387.69;;;-145.72;100.00
28648;BME280;17137;51.494;-0.262;2022-12-20T01:39:46;50378.19;;;-145.72;100.00
28648;BME280;17137;51.494;-0.262;2022-12-20T01:40:16;50389.04;;;-145.72;100.00
28648;BME280;17137;51.494;-0.262;2022-12-20T01:40:47;50392.25;;;-145.72;100.00
28648;BME280;17137;51.494;-0.262;2022-12-20T01:41:18;50385.71;;;-145.72;100.00
28648;BME280;17137;51.494;-0.262;2022-12-20T01:41:49;50384.23;;;-145.72;100.00
28648;BME280;17137;51.494;-0.262;2022-12-20T01:42:19;50389.04;;;-145.72;100.00
28648;BME280;17137;51.494;-0.262;2022-12-20T01:42:49;50383.86;;;-145.72;100.00
28648;BME280;17137;51.494;-0.262;2022-12-20T01:43:20;50376.10;;;-145.72;100.00
28648;BME280;17137;51.494;-0.262;2022-12-20T01:43:53;50383.12;;;-145.72;100.00
28648;BME280;17137;51.494;-0.262;2022-12-20T01:44:58;50387.19;;;-145.72;100.00
28648;BME280;17137;51.494;-0.262;2022-12-20T01:45:29;50387.93;;;-145.72;100.00
28648;BME280;17137;51.494;-0.262;2022-12-20T01:46:00;50384.36;;;-145.72;100.00
28648;BME280;17137;51.494;-0.262;2022-12-20T01:46:31;50380.54;;;-145.72;100.00
28648;BME280;17137;51.494;-0.262;2022-12-20T01:47:02;50384.97;;;-145.72;100.00
28648;BME280;17137;51.494;-0.262;2022-12-20T01:47:36;50384.97;;;-145.72;100.00
28648;BME280;17137;51.494;-0.262;2022-12-20T01:48:06;50382.26;;;-145.72;100.00
28648;BME280;17137;51.494;-0.262;2022-12-20T01:48:38;50386.58;;;-145.72;100.00
28648;BME280;17137;51.494;-0.262;2022-12-20T01:49:12;50382.51;;;-145.72;100.00
28648;BME280;17137;51.494;-0.262;2022-12-20T01:49:46;50374.99;;;-145.72;100.00
28648;BME280;17137;51.494;-0.262;2022-12-20T01:50:17;50380.17;;;-145.72;100.00
28648;BME280;17137;51.494;-0.262;2022-12-20T01:50:49;50375.97;;;-145.72;100.00
28648;BME280;17137;51.494;-0.262;2022-12-20T01:51:22;50386.21;;;-145.72;100.00
28648;BME280;17137;51.494;-0.262;2022-12-20T01:51:56;50391.51;;;-145.72;100.00
28648;BME280;17137;51.494;-0.262;2022-12-20T01:52:33;50382.51;;;-145.72;100.00
28648;BME280;17137;51.494;-0.262;2022-12-20T01:53:04;50382.39;;;-145.72;100.00
28648;BME280;17137;51.494;-0.262;2022-12-20T01:53:35;50375.48;;;-145.72;100.00
28648;BME280;17137;51.494;-0.262;2022-12-20T01:54:09;50392.62;;;-145.72;100.00
28648;BME280;17137;51.494;-0.262;2022-12-20T01:54:43;50378.93;;;-145.72;100.00
28648;BME280;17137;51.494;-0.262;2022-12-20T01:55:19;50379.43;;;-145.72;100.00
28648;BME280;17137;51.494;-0.262;2022-12-20T01:55:52;50381.15;;;-145.72;100.00
28648;BME280;17137;51.494;-0.262;2022-12-20T01:56:22;50389.29;;;-145.72;100.00
28648;BME280;17137;51.494;-0.262;2022-12-20T01:56:56;50387.19;;;-145.72;100.00
28648;BME280;17137;51.494;-0.262;2022-12-20T01:57:33;50378.07;;;-145.72;100.00
28648;BME280;17137;51.494;-0.262;2022-12-20T01:58:09;50374.13;;;-145.72;100.00
28648;BME280;17137;51.494;-0.262;2022-12-20T01:58:41;50372.15;;;-145.72;100.00
28648;BME280;17137;51.494;-0.262;2022-12-20T01:59:13;50369.44;;;-145.72;100.00
28648;BME280;17137;51.494;-0.262;2022-12-20T01:59:45;50372.40;;;-145.72;100.00
28648;BME280;17137;51.494;-0.262;2022-12-20T02:00:18;50377.95;;;-145.72;100.00
28648;BME280;17137;51.494;-0.262;2022-12-20T02:00:49;50377.70;;;-145.72;100.00
28648;BME280;17137;51.494;-0.262;2022-12-20T02:01:21;50387.44;;;-145.72;100.00
28648;BME280;17137;51.494;-0.262;2022-12-20T02:01:52;50383.25;;;-145.72;100.00
28648;BME280;17137;51.494;-0.262;2022-12-20T02:02:22;50383.49;;;-145.72;100.00
28648;BME280;17137;51.494;-0.262;2022-12-20T02:02:54;50385.10;;;-145.72;100.00
28648;BME280;17137;51.494;-0.262;2022-12-20T02:03:29;50385.71;;;-145.72;100.00
28648;BME280;17137;51.494;-0.262;2022-12-20T02:04:00;50375.97;;;-145.72;100.00
28648;BME280;17137;51.494;-0.262;2022-12-20T02:04:30;50379.80;;;-145.72;100.00
28648;BME280;17137;51.494;-0.262;2022-12-20T02:05:01;50382.39;;;-145.72;100.00
28648;BME280;17137;51.494;-0.262;2022-12-20T02:05:34;50371.78;;;-145.72;100.00
28648;BME280;17137;51.494;-0.262;2022-12-20T02:06:16;50370.18;;;-145.72;100.00
28648;BME280;17137;51.494;-0.262;2022-12-20T02:06:46;50374.13;;;-145.72;100.00
28648;BME280;17137;51.494;-0.262;2022-12-20T02:07:20;50362.42;;;-145.72;100.00
28648;BME280;17137;51.494;-0.262;2022-12-20T02:07:53;50371.54;;;-145.72;100.00
28648;BME280;17137;51.494;-0.262;2022-12-20T02:08:24;50384.23;;;-145.72;100.00
28648;BME280;17137;51.494;-0.262;2022-12-20T02:08:58;50379.30;;;-145.72;100.00
28648;BME280;17137;51.494;-0.262;2022-12-20T02:09:32;50373.02;;;-145.72;100.00
28648;BME280;17137;51.494;-0.262;2022-12-20T02:10:04;50366.48;;;-145.72;100.00
28648;BME280;17137;51.494;-0.262;2022-12-20T02:10:47;50375.97;;;-145.72;100.00
28648;BME280;17137;51.494;-0.262;2022-12-20T02:11:36;50376.47;;;-145.72;100.00
28648;BME280;17137;51.494;-0.262;2022-12-20T02:12:11;50377.58;;;-145.72;100.00
28648;BME280;17137;51.494;-0.262;2022-12-20T02:12:45;50368.58;;;-145.72;100.00
28648;BME280;17137;51.494;-0.262;2022-12-20T02:13:22;50382.63;;;-145.72;100.00
28648;BME280;17137;51.494;-0.262;2022-12-20T02:14:03;50368.09;;;-145.72;100.00
28648;BME280;17137;51.494;-0.262;2022-12-20T02:14:47;50366.73;;;-145.72;100.00
28648;BME280;17137;51.494;-0.262;2022-12-20T02:15:31;50376.22;;;-145.72;100.00
28648;BME280;17137;51.494;-0.262;2022-12-20T02:16:04;50383.37;;;-145.72;100.00
28648;BME280;17137;51.494;-0.262;2022-12-20T02:16:42;50367.72;;;-145.72;100.00
28648;BME280;17137;51.494;-0.262;2022-12-20T02:17:24;50386.95;;;-145.72;100.00
28648;BME280;17137;51.494;-0.262;2022-12-20T02:18:06;50379.67;;;-145.72;100.00
28648;BME280;17137;51.494;-0.262;2022-12-20T02:18:42;50382.63;;;-145.72;100.00
28648;BME280;17137;51.494;-0.262;2022-12-20T02:19:30;50373.88;;;-145.72;100.00
28648;BME280;17137;51.494;-0.262;2022-12-20T02:20:20;50368.83;;;-145.72;100.00
28648;BME280;17137;51.494;-0.262;2022-12-20T02:21:21;50368.09;;;-145.72;100.00
28648;BME280;17137;51.494;-0.262;2022-12-20T02:21:56;50372.52;;;-145.72;100.00
28648;BME280;17137;51.494;-0.262;2022-12-20T02:22:45;50374.37;;;-145.72;100.00
28648;BME280;17137;51.494;-0.262;2022-12-20T02:23:36;50381.65;;;-145.72;100.00
28648;BME280;17137;51.494;-0.262;2022-12-20T02:24:54;50371.29;;;-145.72;100.00
28648;BME280;17137;51.494;-0.262;2022-12-20T02:25:46;50377.45;;;-145.72;100.00
28648;BME280;17137;51.494;-0.262;2022-12-20T02:26:33;50371.04;;;-145.72;100.00
28648;BME280;17137;51.494;-0.262;2022-12-20T02:28:20;50377.45;;;-145.72;100.00
28648;BME280;17137;51.494;-0.262;2022-12-20T02:29:06;50369.20;;;-145.72;100.00
28648;BME280;17137;51.494;-0.262;2022-12-20T02:29:57;50371.66;;;-145.72;100.00
28648;BME280;17137;51.494;-0.262;2022-12-20T02:30:33;50380.17;;;-145.72;100.00
28648;BME280;17137;51.494;-0.262;2022-12-20T02:31:10;50363.89;;;-145.72;100.00
28648;BME280;17137;51.494;-0.262;2022-12-20T02:31:46;50375.73;;;-145.72;100.00
28648;BME280;17137;51.494;-0.262;2022-12-20T02:32:21;50385.10;;;-145.72;100.00
28648;BME280;17137;51.494;-0.262;2022-12-20T02:32:58;50380.17;;;-145.72;100.00
28648;BME280;17137;51.494;-0.262;2022-12-20T02:33:29;50381.03;;;-145.72;100.00
28648;BME280;17137;51.494;-0.262;2022-12-20T02:34:00;50375.36;;;-145.72;100.00
28648;BME280;17137;51.494;-0.262;2022-12-20T02:34:33;50379.67;;;-145.72;100.00
28648;BME280;17137;51.494;-0.262;2022-12-20T02:35:07;50371.17;;;-145.72;100.00
28648;BME280;17137;51.494;-0.262;2022-12-20T02:35:39;50364.63;;;-145.72;100.00
28648;BME280;17137;51.494;-0.262;2022-12-20T02:36:09;50378.81;;;-145.72;100.00
28648;BME280;17137;51.494;-0.262;2022-12-20T02:36:39;50373.63;;;-145.72;100.00
28648;BME280;17137;51.494;-0.262;2022-12-20T02:37:10;50373.26;;;-145.72;100.00
28648;BME280;17137;51.494;-0.262;2022-12-20T02:37:50;50376.84;;;-145.72;100.00
28648;BME280;17137;51.494;-0.262;2022-12-20T02:38:28;50364.39;;;-145.72;100.00
28648;BME280;17137;51.494;-0.262;2022-12-20T02:38:58;50369.07;;;-145.72;100.00
28648;BME280;17137;51.494;-0.262;2022-12-20T02:39:30;50358.10;;;-145.72;100.00
28648;BME280;17137;51.494;-0.262;2022-12-20T02:40:01;50367.35;;;-145.72;100.00
28648;BME280;17137;51.494;-0.262;2022-12-20T02:40:37;50377.21;;;-145.72;100.00
28648;BME280;17137;51.494;-0.262;2022-12-20T02:41:12;50364.51;;;-145.72;100.00
28648;BME280;17137;51.494;-0.262;2022-12-20T02:41:49;50370.43;;;-145.72;100.00
28648;BME280;17137;51.494;-0.262;2022-12-20T02:42:22;50373.39;;;-145.72;100.00
28648;BME280;17137;51.494;-0.262;2022-12-20T02:42:58;50369.07;;;-145.72;100.00
28648;BME280;17137;51.494;-0.262;2022-12-20T02:43:30;50381.03;;;-145.72;100.00
28648;BME280;17137;51.494;-0.262;2022-12-20T02:44:04;50381.15;;;-145.72;100.00
28648;BME280;17137;51.494;-0.262;2022-12-20T02:44:38;50386.58;;;-145.72;100.00
28648;BME280;17137;51.494;-0.262;2022-12-20T02:45:17;50378.07;;;-145.72;100.00
28648;BME280;17137;51.494;-0.262;2022-12-20T02:45:48;50373.51;;;-145.72;100.00
28648;BME280;17137;51.494;-0.262;2022-12-20T02:46:19;50366.85;;;-145.72;100.00
28648;BME280;17137;51.494;-0.262;2022-12-20T02:46:53;50371.66;;;-145.72;100.00
28648;BME280;17137;51.494;-0.262;2022-12-20T02:47:28;50371.66;;;-145.72;100.00
28648;BME280;17137;51.494;-0.262;2022-12-20T02:48:04;50370.30;;;-145.72;100.00
28648;BME280;17137;51.494;-0.262;2022-12-20T02:48:36;50359.70;;;-145.72;100.00
28648;BME280;17137;51.494;-0.262;2022-12-20T02:49:10;50360.57;;;-145.72;100.00
28648;BME280;17137;51.494;-0.262;2022-12-20T02:49:42;50360.57;;;-145.72;100.00
28648;BME280;17137;51.494;-0.262;2022-12-20T02:50:17;50369.44;;;-145.72;100.00
28648;BME280;17137;51.494;-0.262;2022-12-20T02:50:51;50370.55;;;-145.72;100.00
28648;BME280;17137;51.494;-0.262;2022-12-20T02:51:25;50379.67;;;-145.72;100.00
28648;BME280;17137;51.494;-0.262;2022-12-20T02:51:59;50373.76;;;-145.72;100.00
28648;BME280;17137;51.494;-0.262;2022-12-20T02:52:30;50368.21;;;-145.72;100.00
28648;BME280;17137;51.494;-0.262;2022-12-20T02:53:02;50365.50;;;-145.72;100.00
28648;BME280;17137;51.494;-0.262;2022-12-20T02:53:33;50376.34;;;-145.72;100.00
28648;BME280;17137;51.494;-0.262;2022-12-20T02:54:04;50357.24;;;-145.72;100.00
28648;BME280;17137;51.494;-0.262;2022-12-20T02:54:35;50362.42;;;-145.72;100.00
28648;BME280;17137;51.494;-0.262;2022-12-20T02:55:06;50380.41;;;-145.72;100.00
28648;BME280;17137;51.494;-0.262;2022-12-20T02:55:42;50366.73;;;-145.72;100.00
28648;BME280;17137;51.494;-0.262;2022-12-20T02:56:19;50364.76;;;-145.72;100.00
28648;BME280;17137;51.494;-0.262;2022-12-20T02:56:55;50364.51;;;-145.72;100.00